createdAt,value
2022-08-07T00:04:58.910Z,101401.50
2022-08-07T00:07:27.292Z,101395.28
2022-08-07T00:25:26.733Z,101414.06
2022-08-07T00:27:56.682Z,101411.00
2022-08-07T00:30:28.570Z,101421.00
2022-08-07T00:33:01.254Z,101422.44
2022-08-07T00:38:42.150Z,101434.53
2022-08-07T00:41:15.104Z,101431.84
2022-08-07T00:50:50.796Z,101425.91
2022-08-07T00:56:56.834Z,101431.84
2022-08-07T00:59:35.387Z,101428.47
2022-08-07T01:02:29.686Z,101427.38
2022-08-07T01:04:59.354Z,101432.13
2022-08-07T01:07:29.639Z,101434.44
2022-08-07T01:10:06.067Z,101433.03
2022-08-07T01:12:53.087Z,101434.06
2022-08-07T01:16:00.657Z,101423.97
2022-08-07T01:18:16.880Z,101430.19
2022-08-07T01:20:57.324Z,101435.16
2022-08-07T01:23:36.739Z,101425.28
2022-08-07T01:26:12.079Z,101430.44
2022-08-07T01:28:52.009Z,101429.63
2022-08-07T01:31:42.361Z,101419.72
2022-08-07T01:34:14.481Z,101422.22
2022-08-07T01:36:57.649Z,101431.34
2022-08-07T01:39:40.482Z,101423.88
2022-08-07T01:42:39.473Z,101432.31
2022-08-07T01:45:09.966Z,101428.97
2022-08-07T01:48:29.365Z,101439.44
2022-08-07T01:50:40.282Z,101432.59
2022-08-07T01:53:20.857Z,101431.94
2022-08-07T01:56:03.288Z,101432.59
2022-08-07T01:58:40.159Z,101418.72
2022-08-07T02:02:02.432Z,101422.81
2022-08-07T02:05:16.150Z,101424.75
2022-08-07T02:08:10.464Z,101424.97
2022-08-07T02:10:54.882Z,101427.34
2022-08-07T02:13:58.068Z,101424.91
2022-08-07T02:16:33.301Z,101418.53
2022-08-07T02:20:04.903Z,101421.22
2022-08-07T02:21:58.674Z,101424.28
2022-08-07T02:24:29.312Z,101432.31
2022-08-07T02:27:02.576Z,101415.56
2022-08-07T02:29:43.545Z,101416.41
2022-08-07T02:32:26.989Z,101419.28
2022-08-07T02:35:00.977Z,101426.31
2022-08-07T02:37:58.232Z,101420.50
2022-08-07T02:40:34.992Z,101421.91
2022-08-07T02:43:07.794Z,101420.59
2022-08-07T02:46:03.741Z,101420.22
2022-08-07T02:48:34.457Z,101430.50
2022-08-07T02:51:28.876Z,101427.66
2022-08-07T02:54:03.736Z,101430.72
2022-08-07T02:56:33.689Z,101432.38
2022-08-07T02:59:06.132Z,101426.56
2022-08-07T03:01:39.966Z,101429.03
2022-08-07T03:04:17.203Z,101431.09
2022-08-07T03:06:48.370Z,101434.78
2022-08-07T03:09:42.101Z,101433.13
2022-08-07T03:12:16.175Z,101446.91
2022-08-07T03:14:52.839Z,101432.47
2022-08-07T03:17:23.191Z,101435.53
2022-08-07T03:19:55.537Z,101441.84
2022-08-07T03:22:29.562Z,101438.97
2022-08-07T03:25:00.361Z,101438.78
2022-08-07T03:27:59.400Z,101437.94
2022-08-07T03:30:24.407Z,101437.75
2022-08-07T03:32:58.643Z,101439.78
2022-08-07T03:35:43.889Z,101434.81
2022-08-07T03:38:45.968Z,101434.69
2022-08-07T03:41:16.255Z,101432.84
2022-08-07T03:43:56.891Z,101440.34
2022-08-07T03:46:31.898Z,101447.34
2022-08-07T03:49:05.324Z,101440.59
2022-08-07T03:51:47.801Z,101448.91
2022-08-07T03:54:35.726Z,101443.38
2022-08-07T03:58:32.597Z,101449.44
2022-08-07T04:00:36.772Z,101442.06
2022-08-07T04:03:05.814Z,101447.91
2022-08-07T04:05:42.448Z,101451.94
2022-08-07T04:08:20.885Z,101457.47
2022-08-07T04:10:54.617Z,101450.97
2022-08-07T04:14:10.310Z,101456.22
2022-08-07T04:16:35.349Z,101460.59
2022-08-07T04:19:14.894Z,101455.28
2022-08-07T04:22:19.585Z,101461.19
2022-08-07T04:24:51.571Z,101462.06
2022-08-07T04:28:00.301Z,101459.06
2022-08-07T04:30:39.527Z,101460.59
2022-08-07T04:33:28.944Z,101463.97
2022-08-07T04:36:00.732Z,101459.06
2022-08-07T04:38:36.420Z,101471.53
2022-08-07T04:41:05.069Z,101472.25
2022-08-07T04:44:12.928Z,101473.47
2022-08-07T04:47:04.591Z,101476.97
2022-08-07T04:49:57.444Z,101480.31
2022-08-07T04:52:34.656Z,101472.47
2022-08-07T04:58:16.215Z,101482.88
2022-08-07T04:59:09.068Z,101486.81
2022-08-07T05:01:36.021Z,101495.31
2022-08-07T05:04:22.784Z,101501.91
2022-08-07T05:07:20.488Z,101499.59
2022-08-07T05:10:04.695Z,101504.66
2022-08-07T05:12:58.506Z,101508.28
2022-08-07T05:15:36.149Z,101507.53
2022-08-07T05:18:25.426Z,101508.84
2022-08-07T05:20:56.918Z,101512.41
2022-08-07T05:23:52.789Z,101520.97
2022-08-07T05:26:26.210Z,101515.09
2022-08-07T05:29:10.401Z,101521.16
2022-08-07T05:31:41.372Z,101518.88
2022-08-07T05:34:26.362Z,101522.03
2022-08-07T05:36:57.734Z,101514.63
2022-08-07T05:40:13.423Z,101523.13
2022-08-07T05:42:55.878Z,101521.69
2022-08-07T05:46:12.204Z,101523.34
2022-08-07T05:48:58.198Z,101519.22
2022-08-07T05:54:55.824Z,101527.00
2022-08-07T05:57:30.478Z,101534.91
2022-08-07T06:00:05.068Z,101520.19
2022-08-07T06:02:50.659Z,101516.28
2022-08-07T06:05:23.177Z,101516.72
2022-08-07T06:08:14.392Z,101519.81
2022-08-07T06:10:51.329Z,101521.09
2022-08-07T06:14:11.595Z,101519.84
2022-08-07T06:16:13.270Z,101524.63
2022-08-07T06:18:51.708Z,101527.50
2022-08-07T06:22:15.814Z,101510.88
2022-08-07T06:24:45.814Z,101525.63
2022-08-07T06:27:04.110Z,101521.88
2022-08-07T06:29:35.133Z,101522.75
2022-08-07T06:32:08.453Z,101526.91
2022-08-07T06:34:36.253Z,101527.06
2022-08-07T06:37:17.204Z,101526.69
2022-08-07T06:40:16.668Z,101523.97
2022-08-07T06:42:37.700Z,101531.88
2022-08-07T06:45:30.258Z,101529.34
2022-08-07T06:48:02.377Z,101527.91
2022-08-07T06:50:43.251Z,101535.19
2022-08-07T06:54:12.179Z,101536.84
2022-08-07T06:56:15.418Z,101532.50
2022-08-07T07:00:14.211Z,101537.47
2022-08-07T07:01:44.099Z,101540.16
2022-08-07T07:04:32.220Z,101537.44
2022-08-07T07:07:10.641Z,101539.66
2022-08-07T07:09:49.161Z,101546.06
2022-08-07T07:12:37.583Z,101544.41
2022-08-07T07:15:26.499Z,101532.53
2022-08-07T07:18:47.499Z,101538.78
2022-08-07T07:21:22.189Z,101539.34
2022-08-07T07:24:08.775Z,101539.56
2022-08-07T07:26:49.689Z,101531.72
2022-08-07T07:29:39.520Z,101531.91
2022-08-07T07:32:14.568Z,101536.25
2022-08-07T07:34:55.982Z,101530.72
2022-08-07T07:37:47.256Z,101522.31
2022-08-07T07:40:19.738Z,101522.69
2022-08-07T07:42:54.066Z,101525.41
2022-08-07T07:46:37.414Z,101526.97
2022-08-07T07:48:35.258Z,101513.44
2022-08-07T07:51:07.918Z,101521.38
2022-08-07T07:53:52.184Z,101515.13
2022-08-07T07:56:29.697Z,101517.13
2022-08-07T07:59:01.705Z,101514.00
2022-08-07T08:02:01.888Z,101517.75
2022-08-07T08:04:25.851Z,101525.34
2022-08-07T08:06:56.257Z,101516.09
2022-08-07T08:09:29.486Z,101519.72
2022-08-07T08:12:02.316Z,101515.75
2022-08-07T08:14:37.050Z,101520.00
2022-08-07T08:17:55.576Z,101508.13
2022-08-07T08:20:17.329Z,101513.69
2022-08-07T08:23:14.261Z,101513.81
2022-08-07T08:26:06.984Z,101500.84
2022-08-07T08:28:44.724Z,101507.56
2022-08-07T08:31:30.189Z,101517.91
2022-08-07T08:34:12.481Z,101516.16
2022-08-07T08:36:59.398Z,101513.91
2022-08-07T08:39:39.003Z,101512.28
2022-08-07T08:42:16.148Z,101513.00
2022-08-07T08:45:18.661Z,101517.22
2022-08-07T08:48:15.482Z,101514.56
2022-08-07T08:50:52.538Z,101514.28
2022-08-07T08:53:43.182Z,101512.41
2022-08-07T08:56:26.280Z,101521.34
2022-08-07T08:59:25.082Z,101519.97
2022-08-07T09:01:59.538Z,101520.53
2022-08-07T09:04:59.904Z,101517.38
2022-08-07T09:08:08.879Z,101517.66
2022-08-07T09:10:52.999Z,101505.03
2022-08-07T09:13:37.120Z,101506.72
2022-08-07T09:16:29.876Z,101507.19
2022-08-07T09:19:44.805Z,101499.09
2022-08-07T09:24:27.167Z,101502.56
2022-08-07T09:25:17.284Z,101500.22
2022-08-07T09:28:03.007Z,101493.00
2022-08-07T09:30:59.282Z,101505.06
2022-08-07T09:33:58.289Z,101495.75
2022-08-07T09:36:27.136Z,101492.94
2022-08-07T09:39:52.999Z,101486.25
2022-08-07T09:42:33.674Z,101491.78
2022-08-07T09:47:25.693Z,101489.75
2022-08-07T09:48:29.826Z,101484.28
2022-08-07T09:52:15.631Z,101478.94
2022-08-07T09:54:47.123Z,101464.25
2022-08-07T09:57:46.504Z,101470.78
2022-08-07T10:00:20.370Z,101472.88
2022-08-07T10:04:05.879Z,101474.03
2022-08-07T10:06:55.536Z,101466.06
2022-08-07T10:10:00.137Z,101465.84
2022-08-07T10:12:53.040Z,101462.56
2022-08-07T10:15:50.014Z,101467.75
2022-08-07T10:18:53.111Z,101459.75
2022-08-07T10:22:12.474Z,101451.59
2022-08-07T10:24:39.992Z,101457.03
2022-08-07T10:27:17.830Z,101449.41
2022-08-07T10:30:07.160Z,101452.69
2022-08-07T10:33:15.084Z,101451.97
2022-08-07T10:36:14.328Z,101453.88
2022-08-07T10:39:02.141Z,101451.28
2022-08-07T10:42:00.382Z,101446.09
2022-08-07T10:44:50.194Z,101456.94
2022-08-07T10:47:26.994Z,101447.16
2022-08-07T10:50:25.934Z,101454.22
2022-08-07T10:53:08.854Z,101445.47
2022-08-07T10:55:43.190Z,101443.34
2022-08-07T10:58:32.103Z,101441.47
2022-08-07T11:01:23.678Z,101439.84
2022-08-07T11:04:23.372Z,101437.00
2022-08-07T11:07:56.261Z,101442.31
2022-08-07T11:10:20.294Z,101435.22
2022-08-07T11:13:04.022Z,101443.69
2022-08-07T11:15:38.742Z,101438.03
2022-08-07T11:18:31.659Z,101430.38
2022-08-07T11:21:11.447Z,101426.72
2022-08-07T11:24:11.773Z,101429.56
2022-08-07T11:26:51.490Z,101433.56
2022-08-07T11:29:42.193Z,101425.31
2022-08-07T11:32:33.370Z,101418.25
2022-08-07T11:35:10.094Z,101418.13
2022-08-07T11:38:10.173Z,101422.84
2022-08-07T11:41:04.144Z,101421.19
2022-08-07T11:44:11.146Z,101417.97
2022-08-07T11:46:48.617Z,101414.22
2022-08-07T11:50:30.073Z,101401.97
2022-08-07T11:52:35.686Z,101402.53
2022-08-07T11:56:14.045Z,101396.63
2022-08-07T11:58:55.251Z,101403.13
2022-08-07T12:02:02.513Z,101399.34
2022-08-07T12:05:04.530Z,101410.81
2022-08-07T12:08:04.036Z,101407.28
2022-08-07T12:10:42.538Z,101388.41
2022-08-07T12:13:36.731Z,101393.69
2022-08-07T12:16:35.507Z,101381.66
2022-08-07T12:20:02.741Z,101386.13
2022-08-07T12:22:58.315Z,101379.44
2022-08-07T12:26:05.391Z,101383.00
2022-08-07T12:29:09.913Z,101374.34
2022-08-07T12:32:02.266Z,101374.56
2022-08-07T12:34:34.744Z,101373.19
2022-08-07T12:37:16.244Z,101379.94
2022-08-07T12:39:57.843Z,101370.38
2022-08-07T12:42:28.555Z,101378.38
2022-08-07T12:45:06.659Z,101374.81
2022-08-07T12:47:46.336Z,101375.22
2022-08-07T12:50:40.351Z,101370.03
2022-08-07T12:54:36.419Z,101355.22
2022-08-07T12:56:32.028Z,101361.97
2022-08-07T12:59:02.877Z,101364.84
2022-08-07T13:02:22.277Z,101362.22
2022-08-07T13:06:02.848Z,101354.56
2022-08-07T13:08:31.952Z,101353.84
2022-08-07T13:11:09.112Z,101356.38
2022-08-07T13:14:09.081Z,101345.38
2022-08-07T13:17:01.276Z,101349.28
2022-08-07T13:19:51.624Z,101348.38
2022-08-07T13:22:37.877Z,101347.31
2022-08-07T13:25:15.270Z,101334.84
2022-08-07T13:28:11.458Z,101342.63
2022-08-07T13:31:01.408Z,101341.22
2022-08-07T13:34:32.757Z,101342.22
2022-08-07T13:37:00.039Z,101343.75
2022-08-07T13:40:33.469Z,101342.47
2022-08-07T13:42:39.750Z,101339.69
2022-08-07T13:45:20.910Z,101335.81
2022-08-07T13:48:07.654Z,101339.06
2022-08-07T13:51:27.235Z,101329.88
2022-08-07T13:54:00.625Z,101325.22
2022-08-07T13:56:36.342Z,101325.03
2022-08-07T13:59:15.964Z,101318.19
2022-08-07T14:02:03.885Z,101321.06
2022-08-07T14:04:36.075Z,101316.84
2022-08-07T14:07:10.133Z,101309.59
2022-08-07T14:10:12.340Z,101307.09
2022-08-07T14:12:54.152Z,101305.28
2022-08-07T14:15:42.148Z,101303.13
2022-08-07T14:18:28.314Z,101311.47
2022-08-07T14:22:02.487Z,101294.25
2022-08-07T14:24:33.459Z,101300.44
2022-08-07T14:28:09.908Z,101299.28
2022-08-07T14:30:04.933Z,101287.88
2022-08-07T14:32:48.368Z,101283.81
2022-08-07T14:35:44.996Z,101285.38
2022-08-07T14:38:26.626Z,101281.78
2022-08-07T14:41:04.136Z,101285.06
2022-08-07T14:43:58.582Z,101289.22
2022-08-07T14:49:16.118Z,101273.53
2022-08-07T14:52:29.197Z,101267.72
2022-08-07T14:54:59.568Z,101264.97
2022-08-07T14:57:58.126Z,101264.09
2022-08-07T15:00:20.692Z,101263.69
2022-08-07T15:03:00.316Z,101263.47
2022-08-07T15:05:55.072Z,101259.00
2022-08-07T15:08:54.514Z,101258.22
2022-08-07T15:11:50.753Z,101254.81
2022-08-07T15:14:21.596Z,101258.03
2022-08-07T15:17:00.539Z,101250.63
2022-08-07T15:20:33.185Z,101248.25
2022-08-07T15:22:33.436Z,101250.75
2022-08-07T15:25:17.124Z,101245.44
2022-08-07T15:28:30.847Z,101244.78
2022-08-07T15:34:01.113Z,101236.38
2022-08-07T15:37:03.786Z,101240.19
2022-08-07T15:39:17.815Z,101237.75
2022-08-07T15:42:44.621Z,101244.44
2022-08-07T15:44:53.015Z,101238.00
2022-08-07T15:50:37.986Z,101234.22
2022-08-07T15:53:17.257Z,101232.13
2022-08-07T15:56:02.540Z,101231.53
2022-08-07T15:59:00.481Z,101232.97
2022-08-07T16:01:45.039Z,101231.41
2022-08-07T16:04:33.641Z,101227.75
2022-08-07T16:08:31.347Z,101227.41
2022-08-07T16:10:14.635Z,101221.28
2022-08-07T16:13:58.962Z,101216.09
2022-08-07T16:17:03.245Z,101214.97
2022-08-07T16:20:33.965Z,101218.63
2022-08-07T16:23:54.331Z,101223.44
2022-08-07T16:26:59.395Z,101223.56
2022-08-07T16:30:30.534Z,101215.78
2022-08-07T16:34:02.678Z,101218.28
2022-08-07T16:36:07.531Z,101215.44
2022-08-07T16:39:48.706Z,101214.16
2022-08-07T16:42:34.250Z,101215.09
2022-08-07T16:45:07.909Z,101211.09
2022-08-07T16:50:13.775Z,101214.38
2022-08-07T16:52:35.308Z,101214.03
2022-08-07T16:55:08.442Z,101219.78
2022-08-07T16:58:04.253Z,101218.94
2022-08-07T17:00:44.792Z,101213.78
2022-08-07T17:03:58.551Z,101216.59
2022-08-07T17:06:57.918Z,101217.31
2022-08-07T17:10:06.346Z,101221.53
2022-08-07T17:13:14.312Z,101227.91
2022-08-07T17:15:51.842Z,101232.50
2022-08-07T17:18:30.336Z,101230.53
2022-08-07T17:20:58.860Z,101231.34
2022-08-07T17:23:41.659Z,101237.31
2022-08-07T17:26:23.430Z,101240.03
2022-08-07T17:29:08.621Z,101240.75
2022-08-07T17:32:03.206Z,101239.78
2022-08-07T17:35:33.023Z,101239.78
2022-08-07T17:38:05.568Z,101234.50
2022-08-07T17:42:02.295Z,101233.88
2022-08-07T17:44:33.782Z,101237.66
2022-08-07T17:47:44.438Z,101247.28
2022-08-07T17:51:01.690Z,101245.75
2022-08-07T17:54:00.983Z,101249.50
2022-08-07T17:56:35.048Z,101251.22
2022-08-07T17:59:35.599Z,101255.00
2022-08-07T18:02:39.530Z,101254.38
2022-08-07T18:06:03.208Z,101257.19
2022-08-07T18:09:01.038Z,101261.91
2022-08-07T18:12:18.117Z,101261.28
2022-08-07T18:15:32.933Z,101254.78
2022-08-07T18:18:47.013Z,101257.81
2022-08-07T18:21:38.365Z,101257.06
2022-08-07T18:24:09.257Z,101256.34
2022-08-07T18:26:40.470Z,101254.91
2022-08-07T18:30:06.081Z,101259.50
2022-08-07T18:32:41.688Z,101257.00
2022-08-07T18:35:50.320Z,101260.53
2022-08-07T18:40:06.667Z,101265.00
2022-08-07T18:42:21.766Z,101267.53
2022-08-07T18:45:44.771Z,101264.00
2022-08-07T18:50:05.574Z,101272.34
2022-08-07T18:52:33.515Z,101277.38
2022-08-07T18:54:53.606Z,101271.34
2022-08-07T18:57:58.585Z,101284.72
2022-08-07T19:00:55.187Z,101275.38
2022-08-07T19:03:49.726Z,101279.81
2022-08-07T19:06:48.295Z,101273.59
2022-08-07T19:09:56.886Z,101280.25
2022-08-07T19:12:59.539Z,101280.94
2022-08-07T19:16:05.586Z,101283.50
2022-08-07T19:18:58.651Z,101289.94
2022-08-07T19:25:06.905Z,101284.84
2022-08-07T19:30:54.166Z,101288.34
2022-08-07T19:31:41.708Z,101291.50
2022-08-07T19:33:56.445Z,101290.69
2022-08-07T19:36:30.660Z,101283.03
2022-08-07T19:39:09.098Z,101287.59
2022-08-07T19:42:05.885Z,101290.13
2022-08-07T19:45:13.137Z,101284.19
2022-08-07T19:48:02.588Z,101290.25
2022-08-07T19:50:43.802Z,101289.66
2022-08-07T19:54:31.588Z,101293.81
2022-08-07T19:58:00.427Z,101287.06
2022-08-07T20:00:39.349Z,101293.50
2022-08-07T20:03:35.646Z,101287.72
2022-08-07T20:06:15.248Z,101287.56
2022-08-07T20:09:03.074Z,101293.81
2022-08-07T20:12:22.090Z,101289.66
2022-08-07T20:14:32.986Z,101296.31
2022-08-07T20:17:07.260Z,101299.66
2022-08-07T20:19:49.402Z,101294.94
2022-08-07T20:22:34.546Z,101298.28
2022-08-07T20:25:12.961Z,101299.75
2022-08-07T20:27:54.111Z,101292.31
2022-08-07T20:30:33.483Z,101293.34
2022-08-07T20:33:08.915Z,101301.69
2022-08-07T20:35:51.835Z,101301.06
2022-08-07T20:38:24.839Z,101296.09
2022-08-07T20:41:02.036Z,101300.88
2022-08-07T20:43:34.218Z,101294.28
2022-08-07T20:46:29.182Z,101297.16
2022-08-07T20:49:58.948Z,101296.59
2022-08-07T20:51:52.280Z,101306.94
2022-08-07T20:54:29.897Z,101309.25
2022-08-07T20:57:05.298Z,101293.50
2022-08-07T21:00:06.501Z,101293.75
2022-08-07T21:02:53.846Z,101286.91
2022-08-07T21:05:51.298Z,101294.16
2022-08-07T21:08:42.375Z,101292.72
2022-08-07T21:11:17.636Z,101295.47
2022-08-07T21:14:16.394Z,101294.25
2022-08-07T21:16:57.057Z,101291.16
2022-08-07T21:19:51.175Z,101295.94
2022-08-07T21:22:28.497Z,101295.16
2022-08-07T21:25:20.688Z,101299.50
2022-08-07T21:28:05.968Z,101295.38
2022-08-07T21:34:34.119Z,101297.25
2022-08-07T21:37:22.665Z,101302.03
2022-08-07T21:40:27.644Z,101299.56
2022-08-07T21:43:22.896Z,101291.88
2022-08-07T21:46:24.324Z,101298.31
2022-08-07T21:49:25.625Z,101297.50
2022-08-07T21:52:04.257Z,101299.34
2022-08-07T21:54:46.018Z,101294.38
2022-08-07T21:57:53.849Z,101300.81
2022-08-07T22:00:50.019Z,101304.09
2022-08-07T22:04:00.662Z,101301.00
2022-08-07T22:07:09.853Z,101312.16
2022-08-07T22:09:54.329Z,101307.19
2022-08-07T22:12:44.265Z,101304.50
2022-08-07T22:16:38.694Z,101302.22
2022-08-07T22:18:56.066Z,101301.81
2022-08-07T22:22:04.834Z,101296.84
2022-08-07T22:24:32.846Z,101302.41
2022-08-07T22:27:16.029Z,101306.97
2022-08-07T22:29:52.571Z,101304.91
2022-08-07T22:32:33.504Z,101301.59
2022-08-07T22:35:03.296Z,101307.16
2022-08-07T22:38:03.176Z,101309.66
2022-08-07T22:41:10.131Z,101304.06
2022-08-07T22:44:08.396Z,101301.16
2022-08-07T22:47:04.458Z,101305.94
2022-08-07T22:49:54.389Z,101304.25
2022-08-07T22:52:51.086Z,101301.97
2022-08-07T22:55:52.456Z,101308.59
2022-08-07T22:58:28.452Z,101308.97
2022-08-07T23:01:15.835Z,101318.91
2022-08-07T23:03:58.548Z,101321.41
2022-08-07T23:06:33.838Z,101317.69
2022-08-07T23:10:03.697Z,101323.06
2022-08-07T23:13:15.512Z,101319.94
2022-08-07T23:16:06.647Z,101328.19
2022-08-07T23:19:38.796Z,101328.81
2022-08-07T23:23:05.020Z,101334.38
2022-08-07T23:25:56.744Z,101332.50
2022-08-07T23:28:54.638Z,101331.03
2022-08-07T23:32:49.545Z,101335.16
2022-08-07T23:34:54.393Z,101332.03
2022-08-07T23:38:01.532Z,101336.13
2022-08-07T23:40:36.584Z,101337.75
2022-08-07T23:43:39.114Z,101344.56
2022-08-07T23:46:54.859Z,101339.78
2022-08-07T23:49:50.117Z,101339.97
2022-08-07T23:53:05.193Z,101336.44
2022-08-07T23:55:51.908Z,101327.75
2022-08-07T23:59:10.444Z,101328.34
